createdAt,value
2023-02-15T00:00:10.072Z,25.93
2023-02-15T00:01:10.072Z,25.91
2023-02-15T00:02:09.170Z,25.98
2023-02-15T00:03:10.155Z,26.02
2023-02-15T00:04:10.055Z,25.92
2023-02-15T00:05:09.041Z,25.92
2023-02-15T00:06:10.035Z,25.93
2023-02-15T00:07:10.028Z,25.90
2023-02-15T00:08:10.028Z,25.89
2023-02-15T00:09:10.342Z,25.91
2023-02-15T00:10:10.024Z,26.00
2023-02-15T00:11:09.056Z,25.98
2023-02-15T00:12:08.989Z,25.91
2023-02-15T00:13:09.973Z,25.98
2023-02-15T00:14:09.976Z,26.01
2023-02-15T00:15:09.986Z,25.93
2023-02-15T00:16:08.997Z,25.89
2023-02-15T00:17:09.963Z,25.83
2023-02-15T00:18:09.942Z,25.99
2023-02-15T00:19:08.974Z,25.97
2023-02-15T00:20:09.923Z,25.95
2023-02-15T00:21:08.927Z,25.91
2023-02-15T00:22:08.917Z,25.98
2023-02-15T00:23:09.900Z,25.99
2023-02-15T00:24:09.930Z,25.97
2023-02-15T00:25:09.888Z,25.98
2023-02-15T00:26:08.897Z,25.90
2023-02-15T00:27:08.881Z,25.94
2023-02-15T00:28:08.862Z,25.95
2023-02-15T00:29:09.875Z,25.83
2023-02-15T00:30:09.922Z,25.99
2023-02-15T00:31:09.999Z,25.94
2023-02-15T00:32:09.857Z,25.94
2023-02-15T00:33:08.838Z,25.92
2023-02-15T00:34:09.845Z,25.92
2023-02-15T00:35:09.853Z,25.91
2023-02-15T00:36:09.816Z,25.86
2023-02-15T00:37:09.835Z,25.79
2023-02-15T00:38:09.817Z,25.86
2023-02-15T00:39:09.834Z,25.82
2023-02-15T00:40:09.826Z,25.86
2023-02-15T00:41:09.832Z,25.91
2023-02-15T00:42:08.838Z,25.94
2023-02-15T00:43:08.867Z,25.87
2023-02-15T00:44:09.864Z,25.92
2023-02-15T00:45:08.845Z,25.85
2023-02-15T00:46:09.931Z,25.96
2023-02-15T00:47:08.848Z,25.90
2023-02-15T00:48:09.846Z,25.91
2023-02-15T00:49:09.900Z,25.87
2023-02-15T00:50:09.864Z,25.95
2023-02-15T00:51:08.886Z,25.87
2023-02-15T00:52:09.878Z,25.91
2023-02-15T00:53:09.874Z,25.84
2023-02-15T00:54:08.878Z,25.88
2023-02-15T00:55:09.882Z,25.88
2023-02-15T00:56:09.880Z,25.90
2023-02-15T00:57:08.895Z,25.94
2023-02-15T00:58:08.912Z,26.01
2023-02-15T00:59:08.892Z,25.86
2023-02-15T01:00:09.891Z,25.91
2023-02-15T01:01:09.948Z,25.92
2023-02-15T01:02:09.908Z,25.95
2023-02-15T01:03:09.915Z,25.92
2023-02-15T01:04:09.993Z,25.86
2023-02-15T01:05:09.942Z,25.95
2023-02-15T01:06:08.955Z,25.88
2023-02-15T01:07:08.976Z,25.87
2023-02-15T01:08:09.974Z,25.88
2023-02-15T01:09:09.971Z,25.84
2023-02-15T01:10:09.987Z,25.90
2023-02-15T01:11:10.057Z,25.90
2023-02-15T01:12:08.996Z,25.92
2023-02-15T01:13:10.010Z,25.84
2023-02-15T01:14:10.013Z,25.83
2023-02-15T01:15:10.045Z,25.89
2023-02-15T01:16:10.100Z,25.94
2023-02-15T01:17:10.054Z,25.96
2023-02-15T01:18:09.046Z,25.98
2023-02-15T01:19:09.058Z,25.91
2023-02-15T01:20:10.066Z,25.96
2023-02-15T01:21:09.077Z,25.92
2023-02-15T01:22:10.075Z,25.92
2023-02-15T01:23:09.115Z,25.94
2023-02-15T01:24:09.087Z,25.84
2023-02-15T01:25:10.129Z,25.85
2023-02-15T01:26:10.112Z,25.87
2023-02-15T01:27:09.154Z,25.94
2023-02-15T01:28:09.151Z,25.91
2023-02-15T01:29:10.152Z,25.83
2023-02-15T01:30:10.277Z,25.89
2023-02-15T01:31:10.258Z,25.96
2023-02-15T01:32:10.337Z,25.92
2023-02-15T01:33:10.207Z,25.87
2023-02-15T01:34:10.208Z,25.91
2023-02-15T01:35:10.235Z,25.93
2023-02-15T01:36:09.275Z,25.84
2023-02-15T01:37:10.259Z,25.85
2023-02-15T01:38:10.273Z,25.87
2023-02-15T01:39:10.312Z,25.86
2023-02-15T01:40:10.311Z,25.87
2023-02-15T01:41:10.316Z,25.85
2023-02-15T01:42:10.337Z,25.80
2023-02-15T01:43:10.322Z,25.87
2023-02-15T01:44:10.333Z,25.81
2023-02-15T01:45:10.363Z,25.88
2023-02-15T01:46:09.465Z,25.86
2023-02-15T01:47:10.378Z,25.82
2023-02-15T01:48:10.386Z,25.88
2023-02-15T01:49:09.379Z,25.84
2023-02-15T01:50:10.412Z,25.85
2023-02-15T01:51:10.390Z,25.85
2023-02-15T01:52:10.400Z,25.84
2023-02-15T01:53:10.452Z,25.77
2023-02-15T01:54:10.470Z,25.78
2023-02-15T01:55:09.520Z,25.85
2023-02-15T01:56:09.445Z,25.78
2023-02-15T01:57:09.479Z,25.80
2023-02-15T01:58:09.479Z,25.82
2023-02-15T01:59:10.508Z,25.89
2023-02-15T02:00:10.541Z,25.89
2023-02-15T02:01:10.565Z,25.88
2023-02-15T02:02:09.547Z,25.77
2023-02-15T02:03:10.543Z,25.86
2023-02-15T02:04:10.580Z,25.84
2023-02-15T02:05:09.595Z,25.84
2023-02-15T02:06:09.613Z,25.79
2023-02-15T02:07:10.616Z,25.89
2023-02-15T02:08:10.648Z,25.89
2023-02-15T02:09:10.670Z,25.84
2023-02-15T02:10:10.672Z,25.78
2023-02-15T02:11:10.716Z,25.89
2023-02-15T02:12:10.691Z,25.80
2023-02-15T02:13:09.704Z,25.86
2023-02-15T02:14:10.738Z,25.84
2023-02-15T02:15:10.737Z,25.82
2023-02-15T02:16:09.792Z,25.78
2023-02-15T02:17:09.746Z,25.76
2023-02-15T02:18:09.765Z,25.81
2023-02-15T02:19:10.782Z,25.89
2023-02-15T02:20:10.790Z,25.84
2023-02-15T02:21:10.816Z,25.84
2023-02-15T02:22:10.811Z,25.75
2023-02-15T02:23:09.860Z,25.81
2023-02-15T02:24:10.856Z,25.79
2023-02-15T02:25:09.866Z,25.84
2023-02-15T02:26:10.888Z,25.77
2023-02-15T02:27:10.911Z,25.81
2023-02-15T02:28:09.907Z,25.85
2023-02-15T02:29:10.918Z,25.85
2023-02-15T02:30:10.996Z,25.86
2023-02-15T02:31:10.122Z,25.92
2023-02-15T02:32:10.958Z,25.85
2023-02-15T02:33:10.974Z,25.78
2023-02-15T02:34:10.987Z,25.79
2023-02-15T02:35:11.001Z,25.76
2023-02-15T02:36:11.021Z,25.78
2023-02-15T02:37:11.030Z,25.76
2023-02-15T02:38:10.039Z,25.87
2023-02-15T02:39:11.069Z,25.82
2023-02-15T02:40:11.071Z,25.79
2023-02-15T02:41:11.116Z,25.78
2023-02-15T02:42:11.103Z,25.78
2023-02-15T02:43:10.159Z,25.59
2023-02-15T02:44:11.154Z,25.75
2023-02-15T02:45:10.138Z,25.75
2023-02-15T02:46:11.223Z,25.74
2023-02-15T02:47:11.190Z,25.74
2023-02-15T02:48:11.192Z,25.83
2023-02-15T02:49:11.204Z,25.85
2023-02-15T02:50:11.242Z,25.81
2023-02-15T02:51:10.219Z,25.78
2023-02-15T02:52:11.229Z,25.76
2023-02-15T02:53:11.254Z,25.78
2023-02-15T02:54:11.267Z,25.83
2023-02-15T02:55:11.279Z,25.74
2023-02-15T02:56:10.279Z,25.76
2023-02-15T02:57:10.377Z,25.75
2023-02-15T02:58:10.323Z,25.81
2023-02-15T02:59:11.360Z,25.86
2023-02-15T03:00:10.399Z,25.81
2023-02-15T03:01:11.352Z,25.75
2023-02-15T03:02:11.377Z,25.83
2023-02-15T03:03:10.453Z,25.83
2023-02-15T03:04:11.422Z,25.72
2023-02-15T03:05:11.435Z,25.72
2023-02-15T03:06:11.449Z,25.72
2023-02-15T03:07:10.495Z,25.67
2023-02-15T03:08:11.483Z,25.79
2023-02-15T03:09:11.525Z,25.74
2023-02-15T03:10:10.535Z,25.79
2023-02-15T03:11:11.552Z,25.81
2023-02-15T03:12:11.559Z,25.78
2023-02-15T03:13:10.577Z,25.75
2023-02-15T03:14:11.610Z,25.76
2023-02-15T03:15:10.639Z,25.83
2023-02-15T03:16:10.780Z,25.75
2023-02-15T03:17:11.676Z,25.79
2023-02-15T03:18:11.692Z,25.75
2023-02-15T03:19:10.721Z,25.76
2023-02-15T03:20:11.738Z,25.81
2023-02-15T03:21:11.754Z,25.80
2023-02-15T03:22:11.767Z,25.82
2023-02-15T03:23:11.804Z,25.80
2023-02-15T03:24:11.815Z,25.75
2023-02-15T03:25:11.846Z,25.74
2023-02-15T03:26:11.854Z,25.69
2023-02-15T03:27:11.879Z,25.61
2023-02-15T03:28:11.891Z,25.75
2023-02-15T03:29:11.941Z,25.83
2023-02-15T03:30:11.015Z,25.72
2023-02-15T03:31:12.138Z,25.72
2023-02-15T03:32:12.072Z,25.72
2023-02-15T03:33:12.001Z,25.73
2023-02-15T03:34:12.012Z,25.80
2023-02-15T03:35:11.058Z,25.80
2023-02-15T03:36:12.099Z,25.76
2023-02-15T03:37:12.107Z,25.82
2023-02-15T03:38:12.118Z,25.67
2023-02-15T03:39:12.140Z,25.75
2023-02-15T03:40:11.169Z,25.79
2023-02-15T03:41:12.180Z,25.73
2023-02-15T03:42:12.217Z,25.65
2023-02-15T03:43:11.221Z,25.68
2023-02-15T03:44:12.243Z,25.79
2023-02-15T03:45:11.269Z,25.80
2023-02-15T03:46:12.334Z,25.78
2023-02-15T03:47:11.353Z,25.80
2023-02-15T03:48:11.354Z,25.83
2023-02-15T03:49:12.428Z,25.81
2023-02-15T03:50:12.405Z,25.73
2023-02-15T03:51:12.424Z,25.79
2023-02-15T03:52:12.480Z,25.78
2023-02-15T03:53:12.482Z,25.71
2023-02-15T03:54:12.543Z,25.73
2023-02-15T03:55:11.518Z,25.79
2023-02-15T03:56:11.549Z,25.64
2023-02-15T03:57:12.573Z,25.75
2023-02-15T03:58:12.594Z,25.73
2023-02-15T03:59:12.606Z,25.68
2023-02-15T04:00:12.629Z,25.77
2023-02-15T04:01:11.766Z,25.73
2023-02-15T04:02:12.691Z,25.79
2023-02-15T04:03:12.780Z,25.73
2023-02-15T04:04:11.726Z,25.79
2023-02-15T04:05:12.751Z,25.72
2023-02-15T04:06:12.785Z,25.68
2023-02-15T04:07:12.816Z,25.72
2023-02-15T04:08:12.838Z,25.75
2023-02-15T04:09:12.853Z,25.73
2023-02-15T04:10:12.882Z,25.77
2023-02-15T04:11:11.912Z,25.70
2023-02-15T04:12:12.935Z,25.66
2023-02-15T04:13:11.947Z,25.68
2023-02-15T04:14:12.980Z,25.75
2023-02-15T04:15:13.013Z,25.77
2023-02-15T04:16:13.162Z,25.84
2023-02-15T04:17:12.081Z,25.75
2023-02-15T04:18:13.091Z,25.72
2023-02-15T04:19:13.142Z,25.74
2023-02-15T04:20:13.145Z,25.60
2023-02-15T04:21:12.183Z,25.72
2023-02-15T04:22:13.198Z,25.73
2023-02-15T04:23:13.214Z,25.69
2023-02-15T04:24:12.253Z,25.66
2023-02-15T04:25:12.276Z,25.76
2023-02-15T04:26:12.314Z,25.66
2023-02-15T04:27:12.318Z,25.73
2023-02-15T04:28:13.353Z,25.76
2023-02-15T04:29:13.372Z,25.74
2023-02-15T04:30:13.464Z,25.66
2023-02-15T04:31:13.578Z,25.73
2023-02-15T04:32:13.560Z,25.70
2023-02-15T04:33:12.509Z,25.73
2023-02-15T04:34:12.516Z,25.63
2023-02-15T04:35:13.577Z,25.69
2023-02-15T04:36:12.570Z,25.70
2023-02-15T04:37:13.607Z,25.62
2023-02-15T04:38:13.635Z,25.65
2023-02-15T04:39:12.653Z,25.66
2023-02-15T04:40:13.689Z,25.74
2023-02-15T04:41:13.710Z,25.73
2023-02-15T04:42:12.953Z,25.70
2023-02-15T04:43:12.754Z,25.69
2023-02-15T04:44:13.794Z,25.69
2023-02-15T04:45:12.815Z,25.65
2023-02-15T04:46:13.896Z,25.61
2023-02-15T04:47:12.865Z,25.75
2023-02-15T04:48:13.882Z,25.70
2023-02-15T04:49:12.920Z,25.67
2023-02-15T04:50:13.941Z,25.71
2023-02-15T04:51:13.987Z,25.66
2023-02-15T04:52:14.013Z,25.65
2023-02-15T04:53:14.032Z,25.52
2023-02-15T04:54:14.056Z,25.61
2023-02-15T04:55:14.091Z,25.75
2023-02-15T04:56:14.113Z,25.69
2023-02-15T04:57:13.135Z,25.71
2023-02-15T04:58:13.175Z,25.70
2023-02-15T04:59:14.180Z,25.67
2023-02-15T05:00:14.218Z,25.62
2023-02-15T05:01:14.289Z,25.70
2023-02-15T05:02:13.286Z,25.65
2023-02-15T05:03:14.296Z,25.66
2023-02-15T05:04:13.390Z,25.63
2023-02-15T05:05:14.366Z,25.62
2023-02-15T05:06:13.378Z,25.70
2023-02-15T05:07:13.440Z,25.70
2023-02-15T05:08:14.434Z,25.70
2023-02-15T05:09:14.465Z,25.67
2023-02-15T05:10:14.504Z,25.75
2023-02-15T05:11:13.534Z,25.71
2023-02-15T05:12:13.545Z,25.73
2023-02-15T05:13:14.578Z,25.74
2023-02-15T05:14:13.609Z,25.74
2023-02-15T05:15:13.650Z,25.75
2023-02-15T05:16:13.681Z,25.71
2023-02-15T05:17:13.693Z,25.71
2023-02-15T05:18:13.733Z,25.66
2023-02-15T05:19:14.758Z,25.71
2023-02-15T05:20:14.781Z,25.70
2023-02-15T05:21:14.817Z,25.64
2023-02-15T05:22:14.825Z,25.71
2023-02-15T05:23:14.896Z,25.70
2023-02-15T05:24:13.890Z,25.71
2023-02-15T05:25:14.918Z,25.69
2023-02-15T05:26:14.967Z,25.69
2023-02-15T05:27:14.981Z,25.66
2023-02-15T05:28:14.004Z,25.62
2023-02-15T05:29:14.035Z,25.63
2023-02-15T05:30:15.212Z,25.73
2023-02-15T05:31:15.403Z,25.64
2023-02-15T05:32:15.333Z,25.60
2023-02-15T05:33:15.164Z,25.62
2023-02-15T05:34:15.190Z,25.69
2023-02-15T05:35:14.236Z,25.59
2023-02-15T05:36:15.247Z,25.70
2023-02-15T05:37:15.285Z,25.64
2023-02-15T05:38:15.327Z,25.60
2023-02-15T05:39:14.369Z,25.74
2023-02-15T05:40:14.386Z,25.63
2023-02-15T05:41:15.413Z,25.63
2023-02-15T05:42:15.441Z,25.63
2023-02-15T05:43:15.484Z,25.66
2023-02-15T05:44:14.481Z,25.64
2023-02-15T05:45:15.514Z,25.70
2023-02-15T05:46:14.648Z,25.60
2023-02-15T05:47:15.570Z,25.58
2023-02-15T05:48:15.642Z,25.67
2023-02-15T05:49:15.635Z,25.70
2023-02-15T05:50:15.655Z,25.67
2023-02-15T05:51:15.681Z,25.59
2023-02-15T05:52:14.708Z,25.55
2023-02-15T05:53:14.754Z,25.65
2023-02-15T05:54:15.786Z,25.71
2023-02-15T05:55:14.845Z,25.60
2023-02-15T05:56:15.848Z,25.63
2023-02-15T05:57:15.877Z,25.67
2023-02-15T05:58:15.896Z,25.70
2023-02-15T05:59:14.933Z,25.72
2023-02-15T06:00:15.969Z,25.67
2023-02-15T06:01:14.994Z,25.65
2023-02-15T06:02:15.090Z,25.67
2023-02-15T06:03:15.108Z,25.61
2023-02-15T06:04:16.095Z,25.65
2023-02-15T06:05:15.134Z,25.65
2023-02-15T06:06:15.141Z,25.67
2023-02-15T06:07:16.183Z,25.58
2023-02-15T06:08:15.203Z,25.67
2023-02-15T06:09:16.276Z,25.68
2023-02-15T06:10:15.269Z,25.61
2023-02-15T06:11:16.330Z,25.64
2023-02-15T06:12:16.335Z,25.63
2023-02-15T06:13:15.388Z,25.58
2023-02-15T06:14:16.409Z,25.63
2023-02-15T06:15:16.476Z,25.67
2023-02-15T06:16:15.507Z,25.63
2023-02-15T06:17:15.493Z,25.61
2023-02-15T06:18:16.518Z,25.65
2023-02-15T06:19:16.547Z,25.57
2023-02-15T06:20:16.576Z,25.60
2023-02-15T06:21:15.599Z,25.61
2023-02-15T06:22:16.630Z,25.61
2023-02-15T06:23:16.661Z,25.65
2023-02-15T06:24:16.681Z,25.63
2023-02-15T06:25:16.702Z,25.64
2023-02-15T06:26:16.735Z,25.63
2023-02-15T06:27:16.801Z,25.67
2023-02-15T06:28:16.806Z,25.58
2023-02-15T06:29:15.838Z,25.63
2023-02-15T06:30:16.960Z,25.64
2023-02-15T06:31:17.012Z,25.67
2023-02-15T06:32:15.922Z,25.68
2023-02-15T06:33:15.957Z,25.64
2023-02-15T06:34:16.003Z,25.58
2023-02-15T06:35:17.002Z,25.63
2023-02-15T06:36:17.050Z,25.54
2023-02-15T06:37:17.077Z,25.56
2023-02-15T06:38:17.124Z,25.65
2023-02-15T06:39:16.157Z,25.58
2023-02-15T06:40:17.194Z,25.63
2023-02-15T06:41:17.194Z,25.62
2023-02-15T06:42:17.227Z,25.60
2023-02-15T06:43:16.268Z,25.56
2023-02-15T06:44:17.326Z,25.58
2023-02-15T06:45:17.322Z,25.58
2023-02-15T06:46:17.441Z,25.68
2023-02-15T06:47:17.370Z,25.64
2023-02-15T06:48:17.412Z,25.65
2023-02-15T06:49:17.449Z,25.68
2023-02-15T06:50:16.460Z,25.62
2023-02-15T06:51:17.485Z,25.61
2023-02-15T06:52:17.518Z,25.61
2023-02-15T06:53:17.572Z,25.58
2023-02-15T06:54:17.958Z,25.65
2023-02-15T06:55:17.638Z,25.60
2023-02-15T06:56:16.668Z,25.56
2023-02-15T06:57:17.852Z,25.67
2023-02-15T06:58:17.732Z,25.60
2023-02-15T06:59:17.789Z,25.53
2023-02-15T07:00:16.811Z,25.58
2023-02-15T07:01:17.856Z,25.52
2023-02-15T07:02:17.854Z,25.52
2023-02-15T07:03:17.911Z,25.33
2023-02-15T07:04:16.915Z,25.50
2023-02-15T07:05:16.959Z,25.64
2023-02-15T07:06:17.968Z,25.57
2023-02-15T07:07:17.012Z,25.60
2023-02-15T07:08:17.080Z,25.49
2023-02-15T07:09:17.106Z,25.55
2023-02-15T07:10:18.122Z,25.52
2023-02-15T07:11:18.141Z,25.53
2023-02-15T07:12:18.162Z,25.58
2023-02-15T07:13:18.215Z,25.53
2023-02-15T07:14:18.235Z,25.54
2023-02-15T07:15:18.294Z,25.55
2023-02-15T07:16:18.340Z,25.54
2023-02-15T07:17:35.033Z,25.62
2023-02-15T07:18:18.313Z,25.58
2023-02-15T07:19:18.306Z,25.52
2023-02-15T07:20:18.332Z,25.53
2023-02-15T07:21:18.297Z,25.53
2023-02-15T07:22:18.279Z,25.58
2023-02-15T07:23:17.281Z,25.61
2023-02-15T07:24:17.272Z,25.53
2023-02-15T07:25:18.349Z,25.53
2023-02-15T07:26:18.324Z,25.55
2023-02-15T07:27:18.246Z,25.46
2023-02-15T07:28:17.244Z,25.53
2023-02-15T07:29:18.231Z,25.61
2023-02-15T07:30:18.398Z,25.55
2023-02-15T07:31:17.369Z,25.52
2023-02-15T07:32:18.289Z,25.54
2023-02-15T07:33:17.223Z,25.54
2023-02-15T07:34:18.202Z,25.53
2023-02-15T07:35:18.258Z,25.48
2023-02-15T07:36:18.263Z,25.43
2023-02-15T07:37:17.294Z,25.50
2023-02-15T07:38:18.322Z,25.49
2023-02-15T07:39:18.362Z,25.48
2023-02-15T07:40:18.402Z,25.50
2023-02-15T07:41:18.430Z,25.56
2023-02-15T07:42:17.444Z,25.43
2023-02-15T07:43:18.485Z,25.33
2023-02-15T07:44:18.512Z,25.46
2023-02-15T07:45:18.542Z,25.39
2023-02-15T07:46:18.610Z,25.49
2023-02-15T07:47:18.631Z,25.48
2023-02-15T07:48:17.620Z,25.58
2023-02-15T07:49:18.660Z,25.46
2023-02-15T07:50:18.685Z,25.38
2023-02-15T07:51:18.740Z,25.48
2023-02-15T07:52:17.753Z,25.43
2023-02-15T07:53:18.779Z,25.46
2023-02-15T07:54:17.806Z,25.50
2023-02-15T07:55:18.852Z,25.57
2023-02-15T07:56:18.865Z,25.54
2023-02-15T07:57:18.911Z,25.40
2023-02-15T07:58:18.928Z,25.33
2023-02-15T07:59:18.964Z,25.45
2023-02-15T08:00:19.013Z,25.63
2023-02-15T08:01:18.030Z,25.46
2023-02-15T08:02:19.057Z,25.34
2023-02-15T08:03:18.275Z,25.58
2023-02-15T08:04:18.111Z,25.40
2023-02-15T08:05:18.151Z,25.56
2023-02-15T08:06:19.174Z,25.60
2023-02-15T08:07:18.191Z,25.49
2023-02-15T08:08:19.229Z,25.53
2023-02-15T08:09:19.243Z,25.56
2023-02-15T08:10:18.273Z,25.60
2023-02-15T08:11:19.305Z,25.58
2023-02-15T08:12:18.321Z,25.63
2023-02-15T08:13:19.359Z,25.61
2023-02-15T08:14:18.382Z,25.61
2023-02-15T08:15:19.465Z,25.59
2023-02-15T08:16:19.502Z,25.62
2023-02-15T08:17:18.448Z,25.57
2023-02-15T08:18:19.477Z,25.61
2023-02-15T08:19:19.526Z,25.63
2023-02-15T08:20:18.520Z,25.65
2023-02-15T08:21:19.539Z,25.57
2023-02-15T08:22:18.575Z,25.59
2023-02-15T08:23:19.606Z,25.53
2023-02-15T08:24:19.596Z,25.57
2023-02-15T08:25:18.628Z,25.57
2023-02-15T08:26:18.630Z,25.58
2023-02-15T08:27:18.654Z,25.58
2023-02-15T08:28:19.694Z,25.53
2023-02-15T08:29:19.705Z,25.54
2023-02-15T08:30:19.834Z,25.53
2023-02-15T08:31:19.939Z,25.45
2023-02-15T08:32:18.780Z,25.49
2023-02-15T08:33:18.760Z,25.56
2023-02-15T08:34:19.788Z,25.56
2023-02-15T08:35:19.850Z,25.41
2023-02-15T08:36:19.827Z,25.47
2023-02-15T08:37:19.825Z,25.41
2023-02-15T08:38:19.841Z,25.42
2023-02-15T08:39:18.869Z,25.41
2023-02-15T08:40:18.890Z,25.49
2023-02-15T08:41:19.899Z,25.37
2023-02-15T08:42:18.910Z,25.43
2023-02-15T08:43:19.908Z,25.42
2023-02-15T08:44:18.913Z,25.29
2023-02-15T08:45:19.939Z,25.32
2023-02-15T08:46:19.955Z,25.36
2023-02-15T08:47:19.942Z,25.33
2023-02-15T08:48:18.937Z,25.29
2023-02-15T08:49:18.961Z,25.35
2023-02-15T08:50:19.949Z,25.33
2023-02-15T08:51:20.055Z,25.32
2023-02-15T08:52:19.962Z,25.32
2023-02-15T08:53:19.976Z,25.31
2023-02-15T08:54:20.042Z,25.30
2023-02-15T08:55:19.985Z,25.23
2023-02-15T08:56:19.986Z,25.30
2023-02-15T08:57:19.980Z,25.23
2023-02-15T08:58:18.991Z,25.30
2023-02-15T08:59:19.986Z,25.30
2023-02-15T09:00:18.988Z,25.30
2023-02-15T09:01:20.036Z,25.27
2023-02-15T09:02:20.030Z,25.33
2023-02-15T09:03:18.985Z,25.25
2023-02-15T09:04:19.002Z,25.29
2023-02-15T09:05:19.996Z,25.26
2023-02-15T09:06:19.997Z,25.25
2023-02-15T09:07:19.012Z,25.30
2023-02-15T09:08:19.988Z,25.34
2023-02-15T09:09:18.986Z,25.26
2023-02-15T09:10:19.968Z,25.26
2023-02-15T09:11:19.971Z,25.29
2023-02-15T09:12:19.972Z,25.41
2023-02-15T09:13:19.974Z,25.34
2023-02-15T09:14:19.960Z,25.27
2023-02-15T09:15:18.959Z,25.34
2023-02-15T09:16:19.503Z,25.36
2023-02-15T09:17:19.963Z,25.40
2023-02-15T09:18:19.999Z,25.34
2023-02-15T09:19:19.958Z,25.31
2023-02-15T09:20:19.979Z,25.39
2023-02-15T09:21:18.976Z,25.33
2023-02-15T09:22:19.944Z,25.31
2023-02-15T09:23:26.779Z,25.37
2023-02-15T09:24:19.947Z,25.32
2023-02-15T09:25:18.932Z,25.31
2023-02-15T09:26:18.950Z,25.29
2023-02-15T09:27:18.934Z,25.35
2023-02-15T09:28:18.905Z,25.24
2023-02-15T09:29:19.920Z,25.24
2023-02-15T09:30:18.937Z,25.39
2023-02-15T09:31:20.081Z,25.39
2023-02-15T09:32:18.945Z,25.32
2023-02-15T09:33:18.870Z,25.28
2023-02-15T09:34:19.920Z,25.30
2023-02-15T09:35:18.861Z,25.35
2023-02-15T09:36:18.867Z,25.27
2023-02-15T09:37:19.870Z,25.31
2023-02-15T09:38:19.851Z,25.30
2023-02-15T09:39:19.878Z,25.30
2023-02-15T09:40:19.833Z,25.35
2023-02-15T09:41:18.842Z,25.30
2023-02-15T09:42:18.826Z,25.26
2023-02-15T09:43:19.813Z,25.30
2023-02-15T09:44:18.802Z,25.35
2023-02-15T09:45:19.799Z,25.34
2023-02-15T09:46:18.895Z,25.29
2023-02-15T09:47:18.810Z,25.22
2023-02-15T09:48:18.780Z,25.20
2023-02-15T09:49:19.786Z,25.21
2023-02-15T09:50:19.789Z,25.25
2023-02-15T09:51:18.766Z,25.21
2023-02-15T09:52:18.761Z,25.25
2023-02-15T09:53:19.756Z,25.22
2023-02-15T09:54:19.757Z,25.19
2023-02-15T09:55:18.847Z,25.21
2023-02-15T09:56:20.757Z,25.25
2023-02-15T09:57:18.920Z,25.20
2023-02-15T09:58:19.000Z,25.17
2023-02-15T09:59:20.056Z,25.17
2023-02-15T10:00:20.142Z,25.21
2023-02-15T10:01:19.221Z,25.21
2023-02-15T10:02:19.249Z,25.14
2023-02-15T10:03:20.299Z,25.18
2023-02-15T10:04:20.458Z,25.21
2023-02-15T10:05:19.424Z,25.17
2023-02-15T10:06:19.498Z,25.16
2023-02-15T10:07:20.568Z,25.17
2023-02-15T10:08:20.609Z,25.16
2023-02-15T10:09:20.670Z,25.19
2023-02-15T10:10:20.715Z,25.13
2023-02-15T10:11:19.810Z,25.14
2023-02-15T10:12:19.842Z,25.11
2023-02-15T10:13:20.897Z,25.13
2023-02-15T10:14:20.942Z,25.16
2023-02-15T10:15:21.031Z,25.16
2023-02-15T10:16:21.077Z,25.14
2023-02-15T10:17:21.123Z,25.11
2023-02-15T10:18:21.180Z,25.13
2023-02-15T10:19:21.235Z,25.08
2023-02-15T10:20:21.372Z,25.19
2023-02-15T10:21:21.423Z,25.09
2023-02-15T10:22:21.402Z,25.14
2023-02-15T10:23:20.486Z,25.17
2023-02-15T10:24:21.526Z,25.16
2023-02-15T10:25:21.572Z,25.17
2023-02-15T10:26:21.689Z,25.17
2023-02-15T10:27:21.681Z,25.17
2023-02-15T10:28:21.746Z,25.17
2023-02-15T10:29:20.776Z,25.23
2023-02-15T10:30:21.977Z,25.20
2023-02-15T10:31:22.088Z,25.15
2023-02-15T10:32:21.008Z,25.19
2023-02-15T10:33:21.986Z,25.16
2023-02-15T10:34:22.037Z,25.19
2023-02-15T10:35:21.090Z,25.22
2023-02-15T10:36:21.144Z,25.20
2023-02-15T10:37:21.210Z,25.20
2023-02-15T10:38:22.262Z,25.19
2023-02-15T10:39:22.311Z,25.23
2023-02-15T10:40:22.351Z,25.18
2023-02-15T10:41:22.409Z,25.16
2023-02-15T10:42:21.516Z,25.26
2023-02-15T10:43:21.625Z,25.16
2023-02-15T10:44:21.579Z,25.25
2023-02-15T10:45:22.634Z,25.23
2023-02-15T10:46:21.800Z,25.19
2023-02-15T10:47:21.731Z,25.19
2023-02-15T10:48:22.827Z,25.23
2023-02-15T10:49:22.833Z,25.25
2023-02-15T10:50:21.887Z,25.25
2023-02-15T10:51:22.922Z,25.16
2023-02-15T10:52:24.360Z,25.19
2023-02-15T10:53:22.090Z,25.19
2023-02-15T10:54:23.127Z,25.22
2023-02-15T10:55:22.169Z,25.23
2023-02-15T10:56:23.213Z,25.19
2023-02-15T10:57:23.268Z,25.25
2023-02-15T10:58:22.372Z,25.23
2023-02-15T10:59:22.371Z,25.18
2023-02-15T11:00:23.405Z,25.23
2023-02-15T11:01:22.545Z,25.22
2023-02-15T11:02:22.478Z,25.23
2023-02-15T11:03:23.518Z,25.26
2023-02-15T11:04:22.572Z,25.33
2023-02-15T11:05:23.686Z,25.23
2023-02-15T11:06:22.639Z,25.29
2023-02-15T11:07:23.673Z,25.21
2023-02-15T11:08:23.729Z,25.22
2023-02-15T11:09:23.760Z,25.29
2023-02-15T11:10:23.795Z,25.25
2023-02-15T11:11:23.837Z,25.21
2023-02-15T11:12:23.887Z,25.27
2023-02-15T11:13:22.915Z,25.29
2023-02-15T11:14:23.987Z,25.25
2023-02-15T11:15:22.995Z,25.32
2023-02-15T11:16:23.080Z,25.32
2023-02-15T11:17:23.056Z,25.29
2023-02-15T11:18:24.095Z,25.29
2023-02-15T11:19:24.149Z,25.21
2023-02-15T11:20:24.175Z,25.30
2023-02-15T11:21:23.225Z,25.26
2023-02-15T11:22:24.243Z,25.29
2023-02-15T11:23:24.271Z,25.29
2023-02-15T11:24:23.327Z,25.30
2023-02-15T11:25:24.346Z,25.26
2023-02-15T11:26:24.394Z,25.32
2023-02-15T11:27:24.505Z,25.30
2023-02-15T11:28:24.443Z,25.24
2023-02-15T11:29:24.543Z,25.25
2023-02-15T11:30:23.719Z,25.21
2023-02-15T11:31:24.674Z,25.26
2023-02-15T11:32:24.628Z,25.31
2023-02-15T11:33:23.648Z,25.28
2023-02-15T11:34:24.676Z,25.28
2023-02-15T11:35:24.702Z,25.26
2023-02-15T11:36:24.754Z,25.32
2023-02-15T11:37:23.776Z,25.26
2023-02-15T11:38:24.834Z,25.28
2023-02-15T11:39:24.880Z,25.36
2023-02-15T11:40:24.053Z,25.33
2023-02-15T11:41:24.166Z,25.28
2023-02-15T11:42:25.113Z,25.31
2023-02-15T11:43:24.021Z,25.31
2023-02-15T11:44:24.277Z,25.33
2023-02-15T11:45:24.204Z,25.31
2023-02-15T11:46:25.473Z,25.24
2023-02-15T11:47:25.261Z,25.25
2023-02-15T11:48:25.520Z,25.39
2023-02-15T11:49:26.314Z,25.28
2023-02-15T11:50:25.605Z,25.29
2023-02-15T11:51:25.406Z,25.31
2023-02-15T11:52:25.597Z,25.31
2023-02-15T11:53:25.602Z,25.25
2023-02-15T11:54:25.639Z,25.29
2023-02-15T11:55:25.537Z,25.27
2023-02-15T11:56:24.574Z,25.33
2023-02-15T11:57:24.616Z,25.29
2023-02-15T11:58:25.695Z,25.25
2023-02-15T11:59:25.716Z,25.24
2023-02-15T12:00:25.686Z,25.24
2023-02-15T12:01:25.724Z,25.31
2023-02-15T12:02:25.845Z,25.28
2023-02-15T12:03:25.775Z,25.36
2023-02-15T12:04:25.806Z,25.35
2023-02-15T12:05:25.869Z,25.34
2023-02-15T12:06:24.875Z,25.35
2023-02-15T12:07:25.899Z,25.32
2023-02-15T12:08:25.916Z,25.29
2023-02-15T12:09:25.942Z,25.35
2023-02-15T12:10:25.984Z,25.34
2023-02-15T12:11:25.008Z,25.34
2023-02-15T12:12:26.021Z,25.30
2023-02-15T12:13:25.054Z,25.35
2023-02-15T12:14:25.081Z,25.27
2023-02-15T12:15:26.108Z,25.35
2023-02-15T12:16:26.288Z,25.25
2023-02-15T12:17:26.168Z,25.35
2023-02-15T12:18:26.319Z,25.27
2023-02-15T12:19:26.209Z,25.31
2023-02-15T12:20:26.248Z,25.30
2023-02-15T12:21:27.720Z,25.30
2023-02-15T12:22:26.304Z,25.34
2023-02-15T12:23:26.315Z,25.34
2023-02-15T12:24:26.332Z,25.36
2023-02-15T12:25:26.376Z,25.31
2023-02-15T12:26:25.380Z,25.38
2023-02-15T12:27:26.422Z,25.30
2023-02-15T12:28:26.443Z,25.28
2023-02-15T12:29:26.466Z,25.34
2023-02-15T12:30:26.553Z,25.33
2023-02-15T12:31:25.606Z,25.34
2023-02-15T12:32:26.629Z,25.31
2023-02-15T12:33:26.575Z,25.36
2023-02-15T12:34:26.728Z,25.35
2023-02-15T12:35:26.628Z,25.31
2023-02-15T12:36:26.644Z,25.34
2023-02-15T12:37:26.685Z,25.36
2023-02-15T12:38:25.692Z,25.38
2023-02-15T12:39:26.740Z,25.37
2023-02-15T12:40:26.760Z,25.38
2023-02-15T12:41:26.823Z,25.38
2023-02-15T12:42:26.800Z,25.32
2023-02-15T12:43:26.832Z,25.39
2023-02-15T12:44:26.861Z,25.42
2023-02-15T12:45:25.923Z,25.39
2023-02-15T12:46:25.924Z,25.42
2023-02-15T12:47:29.626Z,25.36
2023-02-15T12:48:25.926Z,25.35
2023-02-15T12:49:25.919Z,25.39
2023-02-15T12:50:27.063Z,25.41
2023-02-15T12:51:27.179Z,25.42
2023-02-15T12:52:25.954Z,25.43